Time;durP1;ratioP1;P1;durP2;ratioP2;P2;SDS_P1;SDS_P2;PMS_P1;PMS_P2;Temp;Humidity;BMP_temperature;BMP_pressure;BME280_temperature;BME280_humidity;BME280_pressure;Samples;Min_cycle;Max_cycle;Signal;HPM_P1;HPM_P2
2023/06/15 00:02:10;;;;;;;18.80;13.15;;;;;;;;;;5074094;28;20041;-76
2023/06/15 00:04:36;;;;;;;17.75;12.82;;;;;;;;;;5073865;28;20027;-75
2023/06/15 00:07:01;;;;;;;17.48;11.15;;;;;;;;;;5075430;28;20013;-77
2023/06/15 00:09:26;;;;;;;20.67;12.85;;;;;;;;;;5075546;28;20062;-76
2023/06/15 00:11:51;;;;;;;20.40;13.37;;;;;;;;;;5075609;28;20017;-77
2023/06/15 00:14:17;;;;;;;20.07;13.63;;;;;;;;;;5057553;28;20274;-77
2023/06/15 00:16:42;;;;;;;20.10;13.60;;;;;;;;;;5075823;28;20800;-77
2023/06/15 00:19:08;;;;;;;21.33;13.67;;;;;;;;;;5057421;28;20286;-77
2023/06/15 00:21:41;;;;;;;18.90;13.52;;;;;;;;;;5075372;28;20271;-77
2023/06/15 00:24:09;;;;;;;20.88;13.35;;;;;;;;;;5075446;28;20417;-76
2023/06/15 00:26:34;;;;;;;21.52;12.70;;;;;;;;;;5075262;28;20095;-78
2023/06/15 00:29:00;;;;;;;21.05;13.32;;;;;;;;;;5075654;28;20525;-76
2023/06/15 00:31:25;;;;;;;22.98;14.57;;;;;;;;;;5041274;28;20016;-77
2023/06/15 00:33:51;;;;;;;21.92;13.88;;;;;;;;;;5076473;28;20024;-77
2023/06/15 00:36:17;;;;;;;21.63;14.65;;;;;;;;;;5076095;28;20028;-77
2023/06/15 00:38:43;;;;;;;24.98;15.55;;;;;;;;;;5075726;28;20021;-78
2023/06/15 00:41:08;;;;;;;24.65;15.18;;;;;;;;;;5057130;28;20023;-77
2023/06/15 00:43:35;;;;;;;22.37;15.57;;;;;;;;;;5075653;28;20513;-77
2023/06/15 00:46:00;;;;;;;24.80;15.98;;;;;;;;;;5075148;28;20358;-77
2023/06/15 00:48:26;;;;;;;23.90;15.93;;;;;;;;;;5074914;28;20048;-77
2023/06/15 00:50:51;;;;;;;23.33;14.77;;;;;;;;;;5075282;28;20017;-77
2023/06/15 00:53:16;;;;;;;27.88;15.02;;;;;;;;;;5074835;28;20024;-77
2023/06/15 00:55:41;;;;;;;24.63;15.20;;;;;;;;;;5074694;28;20028;-75
2023/06/15 00:58:07;;;;;;;22.38;13.65;;;;;;;;;;5075106;28;20020;-78
2023/06/15 01:00:35;;;;;;;20.85;13.63;;;;;;;;;;5056591;28;20429;-77
2023/06/15 01:03:04;;;;;;;24.55;13.93;;;;;;;;;;5075029;28;20020;-75
2023/06/15 01:05:34;;;;;;;23.02;15.07;;;;;;;;;;5056806;28;20023;-76
2023/06/15 01:08:02;;;;;;;20.90;14.43;;;;;;;;;;5074410;28;20081;-77
2023/06/15 01:10:30;;;;;;;22.27;15.43;;;;;;;;;;5074273;28;20020;-78
2023/06/15 01:12:57;;;;;;;19.42;13.40;;;;;;;;;;5074925;28;20466;-78
2023/06/15 01:15:23;;;;;;;20.15;13.88;;;;;;;;;;5074879;28;20025;-77
2023/06/15 01:17:53;;;;;;;25.38;14.77;;;;;;;;;;5056152;28;20483;-77
2023/06/15 01:20:24;;;;;;;24.55;15.73;;;;;;;;;;5074382;28;20043;-77
2023/06/15 01:23:10;;;;;;;20.23;14.30;;;;;;;;;;5074054;28;20017;-77
2023/06/15 01:25:44;;;;;;;22.67;15.13;;;;;;;;;;5072587;28;20020;-77
2023/06/15 01:28:11;;;;;;;20.13;13.95;;;;;;;;;;5072392;28;20024;-76
2023/06/15 01:30:44;;;;;;;21.33;14.45;;;;;;;;;;5071903;28;20086;-78
2023/06/15 01:33:09;;;;;;;21.95;13.95;;;;;;;;;;5071715;28;20020;-76
2023/06/15 01:35:35;;;;;;;18.67;13.35;;;;;;;;;;5053848;28;20016;-77
2023/06/15 01:38:00;;;;;;;20.52;14.07;;;;;;;;;;5071946;28;20469;-78
2023/06/15 01:40:26;;;;;;;22.85;13.73;;;;;;;;;;5054016;28;20021;-78
2023/06/15 01:42:51;;;;;;;18.08;13.43;;;;;;;;;;5072594;28;20049;-76
2023/06/15 01:45:18;;;;;;;24.02;13.15;;;;;;;;;;5071765;28;20017;-75
2023/06/15 01:47:43;;;;;;;16.10;12.68;;;;;;;;;;5071702;28;20013;-76
2023/06/15 01:50:10;;;;;;;15.73;12.88;;;;;;;;;;5071794;28;20484;-77
2023/06/15 01:52:35;;;;;;;15.73;11.80;;;;;;;;;;5071937;28;20435;-78
2023/06/15 01:55:00;;;;;;;18.55;12.75;;;;;;;;;;5072166;28;20043;-78
2023/06/15 01:57:26;;;;;;;18.27;12.27;;;;;;;;;;5053882;28;20444;-76
2023/06/15 01:59:54;;;;;;;16.90;12.38;;;;;;;;;;5072542;28;20028;-76
2023/06/15 02:02:19;;;;;;;17.40;12.07;;;;;;;;;;5073728;28;20008;-77
2023/06/15 02:04:45;;;;;;;17.58;11.90;;;;;;;;;;5073466;28;20078;-77
2023/06/15 02:07:10;;;;;;;19.20;12.77;;;;;;;;;;5073696;28;20023;-77
2023/06/15 02:09:35;;;;;;;19.43;12.17;;;;;;;;;;5055773;28;20031;-78
2023/06/15 02:12:01;;;;;;;18.97;12.47;;;;;;;;;;5073252;28;20275;-76
2023/06/15 02:14:27;;;;;;;19.87;12.50;;;;;;;;;;5073335;28;20275;-76
2023/06/15 02:16:53;;;;;;;18.60;13.23;;;;;;;;;;5073177;28;20274;-76
2023/06/15 02:19:21;;;;;;;22.27;12.57;;;;;;;;;;5073045;28;20386;-77
2023/06/15 02:21:49;;;;;;;21.63;12.00;;;;;;;;;;5073370;28;20013;-77
2023/06/15 02:24:16;;;;;;;23.45;12.27;;;;;;;;;;5055252;28;20025;-76
2023/06/15 02:26:42;;;;;;;24.15;12.98;;;;;;;;;;5073164;28;20499;-76
2023/06/15 02:29:07;;;;;;;19.23;12.23;;;;;;;;;;5055217;28;20100;-78
2023/06/15 02:31:32;;;;;;;16.83;12.33;;;;;;;;;;5073118;28;20025;-76
2023/06/15 02:33:57;;;;;;;20.10;12.10;;;;;;;;;;5073081;28;20358;-77
2023/06/15 02:36:23;;;;;;;17.13;11.02;;;;;;;;;;5073045;28;20305;-78
2023/06/15 02:38:49;;;;;;;16.70;11.98;;;;;;;;;;5073078;28;20024;-77
2023/06/15 02:41:14;;;;;;;14.80;10.68;;;;;;;;;;5073147;28;20042;-78
2023/06/15 02:43:39;;;;;;;19.80;11.40;;;;;;;;;;5072956;28;20020;-77
2023/06/15 02:46:05;;;;;;;18.33;11.82;;;;;;;;;;5072896;28;20013;-76
2023/06/15 02:48:30;;;;;;;14.88;10.60;;;;;;;;;;5073237;28;20480;-76
2023/06/15 02:50:56;;;;;;;18.17;11.68;;;;;;;;;;5072848;28;20025;-78
2023/06/15 02:53:21;;;;;;;20.55;11.20;;;;;;;;;;5072918;28;20025;-78
2023/06/15 02:55:46;;;;;;;17.67;10.45;;;;;;;;;;5073063;28;20020;-78
2023/06/15 02:58:13;;;;;;;19.38;10.40;;;;;;;;;;5072883;28;20378;-77
2023/06/15 03:00:40;;;;;;;17.88;11.40;;;;;;;;;;5072670;28;20017;-76
2023/06/15 03:03:05;;;;;;;16.13;10.52;;;;;;;;;;5073002;28;20058;-77
2023/06/15 03:05:32;;;;;;;20.38;10.95;;;;;;;;;;5072689;28;20393;-78
2023/06/15 03:07:58;;;;;;;17.95;10.63;;;;;;;;;;5073063;28;20097;-76
2023/06/15 03:10:23;;;;;;;14.88;10.60;;;;;;;;;;5054717;28;20466;-79
2023/06/15 03:12:48;;;;;;;16.88;11.40;;;;;;;;;;5072971;28;20527;-77
2023/06/15 03:15:14;;;;;;;16.73;11.43;;;;;;;;;;5072438;28;20142;-78
2023/06/15 03:17:40;;;;;;;19.65;10.88;;;;;;;;;;5073111;28;20104;-78
2023/06/15 03:20:10;;;;;;;20.58;10.52;;;;;;;;;;5072325;28;20040;-76
2023/06/15 03:22:36;;;;;;;19.38;11.57;;;;;;;;;;5072745;28;20023;-77
2023/06/15 03:25:03;;;;;;;19.00;11.02;;;;;;;;;;5072593;28;20009;-78
2023/06/15 03:27:29;;;;;;;17.27;10.88;;;;;;;;;;5072552;28;20027;-77
2023/06/15 03:29:56;;;;;;;19.77;10.85;;;;;;;;;;5072429;28;20016;-77
2023/06/15 03:32:22;;;;;;;18.58;11.45;;;;;;;;;;5072420;28;20382;-78
2023/06/15 03:34:47;;;;;;;18.67;11.02;;;;;;;;;;5072865;28;20021;-78
2023/06/15 03:37:12;;;;;;;16.77;11.07;;;;;;;;;;5072450;28;20070;-77
2023/06/15 03:39:37;;;;;;;17.00;11.80;;;;;;;;;;5073343;28;20025;-77
2023/06/15 03:42:03;;;;;;;18.83;11.30;;;;;;;;;;5076450;28;20658;-77
2023/06/15 03:44:28;;;;;;;25.25;11.63;;;;;;;;;;5076984;28;20308;-77
2023/06/15 03:46:54;;;;;;;18.80;11.45;;;;;;;;;;5076321;28;20331;-78
2023/06/15 03:49:19;;;;;;;15.18;11.02;;;;;;;;;;5076015;28;20408;-76
2023/06/15 03:51:45;;;;;;;15.70;10.53;;;;;;;;;;5076078;28;20064;-77
2023/06/15 03:54:10;;;;;;;21.02;11.63;;;;;;;;;;5076125;28;20287;-77
2023/06/15 03:56:36;;;;;;;15.60;10.30;;;;;;;;;;5075904;28;20058;-77
2023/06/15 03:59:01;;;;;;;16.42;10.90;;;;;;;;;;5075677;28;20135;-78
2023/06/15 04:01:26;;;;;;;16.92;10.25;;;;;;;;;;5057780;28;20012;-77
2023/06/15 04:03:52;;;;;;;16.42;12.30;;;;;;;;;;5075754;28;20020;-76
2023/06/15 04:06:18;;;;;;;22.25;11.70;;;;;;;;;;5076127;28;20009;-77
2023/06/15 04:08:43;;;;;;;19.90;12.32;;;;;;;;;;5075878;28;20486;-77
2023/06/15 04:11:09;;;;;;;21.08;10.60;;;;;;;;;;5075967;28;20362;-79
2023/06/15 04:13:35;;;;;;;20.98;11.10;;;;;;;;;;5075726;28;20095;-77
2023/06/15 04:16:00;;;;;;;21.70;11.52;;;;;;;;;;5057507;28;20133;-78
2023/06/15 04:18:25;;;;;;;18.13;10.38;;;;;;;;;;5075540;28;20025;-77
2023/06/15 04:20:59;;;;;;;16.90;10.65;;;;;;;;;;5075414;28;20037;-78
2023/06/15 04:23:25;;;;;;;20.00;11.10;;;;;;;;;;5075940;28;20491;-76
2023/06/15 04:25:53;;;;;;;21.80;11.60;;;;;;;;;;5075952;28;20362;-77
2023/06/15 04:28:20;;;;;;;18.02;10.73;;;;;;;;;;5074989;28;20020;-77
2023/06/15 04:31:05;;;;;;;16.98;10.35;;;;;;;;;;5075275;28;20408;-76
2023/06/15 04:33:32;;;;;;;21.60;11.02;;;;;;;;;;5075759;28;20020;-77
2023/06/15 04:36:00;;;;;;;18.85;10.40;;;;;;;;;;5074029;28;20044;-78
2023/06/15 04:38:29;;;;;;;16.83;11.52;;;;;;;;;;5075188;28;20025;-78
2023/06/15 04:40:56;;;;;;;22.67;10.65;;;;;;;;;;5074904;28;20025;-77
2023/06/15 04:43:22;;;;;;;17.38;10.80;;;;;;;;;;5075414;28;20462;-78
2023/06/15 04:45:47;;;;;;;16.38;9.65;;;;;;;;;;5075306;28;20024;-76
2023/06/15 04:48:14;;;;;;;17.30;10.77;;;;;;;;;;5075953;28;20013;-78
2023/06/15 04:50:39;;;;;;;21.50;11.43;;;;;;;;;;5075329;28;20762;-75
2023/06/15 04:53:04;;;;;;;22.43;11.70;;;;;;;;;;5056794;28;20020;-77
2023/06/15 04:55:30;;;;;;;15.98;10.25;;;;;;;;;;5075418;28;20748;-76
2023/06/15 04:57:56;;;;;;;17.38;10.02;;;;;;;;;;5074947;28;20031;-75
2023/06/15 05:00:23;;;;;;;18.60;10.55;;;;;;;;;;5074810;28;20021;-73
2023/06/15 05:02:50;;;;;;;19.75;11.20;;;;;;;;;;5070707;28;20051;-74
2023/06/15 05:05:16;;;;;;;20.63;11.98;;;;;;;;;;5073757;28;20028;-75
2023/06/15 05:07:43;;;;;;;19.50;11.77;;;;;;;;;;5074797;28;20088;-72
2023/06/15 05:10:09;;;;;;;16.92;10.63;;;;;;;;;;5056964;28;20066;-76
2023/06/15 05:12:36;;;;;;;18.40;11.93;;;;;;;;;;5056554;28;20043;-75
2023/06/15 05:15:12;;;;;;;21.42;12.43;;;;;;;;;;5074354;28;20103;-75
2023/06/15 05:17:38;;;;;;;19.88;10.98;;;;;;;;;;5056755;28;20048;-76
2023/06/15 05:20:05;;;;;;;23.35;10.75;;;;;;;;;;5072967;28;20052;-76
2023/06/15 05:22:31;;;;;;;20.23;12.18;;;;;;;;;;5056429;28;20062;-72
2023/06/15 05:24:56;;;;;;;18.85;11.95;;;;;;;;;;5055463;28;20016;-76
2023/06/15 05:27:21;;;;;;;22.73;12.25;;;;;;;;;;5072931;28;20031;-75
2023/06/15 05:29:51;;;;;;;19.35;12.23;;;;;;;;;;5073499;28;20488;-74
2023/06/15 05:32:18;;;;;;;16.02;11.18;;;;;;;;;;5073607;28;20477;-74
2023/06/15 05:34:43;;;;;;;20.75;11.35;;;;;;;;;;5073681;28;20385;-70
2023/06/15 05:37:08;;;;;;;18.10;11.33;;;;;;;;;;5073417;28;20458;-73
2023/06/15 05:39:34;;;;;;;17.37;10.47;;;;;;;;;;5074143;28;20362;-72
2023/06/15 05:42:00;;;;;;;17.60;10.25;;;;;;;;;;5072650;28;20277;-71
2023/06/15 05:44:26;;;;;;;17.95;10.57;;;;;;;;;;5073043;28;20009;-74
2023/06/15 05:46:52;;;;;;;18.87;10.87;;;;;;;;;;5073037;28;20118;-72
2023/06/15 05:49:18;;;;;;;16.92;10.60;;;;;;;;;;5073241;28;20269;-72
2023/06/15 05:51:43;;;;;;;18.50;11.05;;;;;;;;;;5073580;28;20020;-71
2023/06/15 05:54:08;;;;;;;17.45;10.90;;;;;;;;;;5073593;28;20028;-72
2023/06/15 05:56:34;;;;;;;17.73;10.93;;;;;;;;;;5072724;28;20020;-73
2023/06/15 05:58:59;;;;;;;23.57;10.43;;;;;;;;;;5071302;28;20406;-74
2023/06/15 06:01:24;;;;;;;14.18;9.27;;;;;;;;;;5071232;28;20255;-74
2023/06/15 06:03:49;;;;;;;21.63;9.00;;;;;;;;;;5071092;28;20095;-73
2023/06/15 06:06:15;;;;;;;17.07;8.57;;;;;;;;;;5071264;28;20266;-73
2023/06/15 06:08:40;;;;;;;14.15;8.85;;;;;;;;;;5071586;28;20255;-74
2023/06/15 06:11:07;;;;;;;12.77;9.37;;;;;;;;;;5071549;28;20025;-73
2023/06/15 06:13:33;;;;;;;16.55;8.77;;;;;;;;;;5073593;28;20266;-75
2023/06/15 06:15:59;;;;;;;18.05;9.07;;;;;;;;;;5073424;28;20024;-72
2023/06/15 06:18:24;;;;;;;14.07;9.02;;;;;;;;;;5073499;28;20595;-74
2023/06/15 06:20:49;;;;;;;15.93;9.18;;;;;;;;;;5072993;28;20051;-74
2023/06/15 06:23:15;;;;;;;16.47;9.57;;;;;;;;;;5073540;28;20020;-73
2023/06/15 06:25:40;;;;;;;15.05;9.18;;;;;;;;;;5073201;28;20372;-73
2023/06/15 06:28:05;;;;;;;10.30;9.25;;;;;;;;;;5073418;28;20052;-72
2023/06/15 06:30:32;;;;;;;17.63;9.43;;;;;;;;;;5073365;28;20020;-74
2023/06/15 06:32:57;;;;;;;17.42;9.40;;;;;;;;;;5073149;28;20266;-74
2023/06/15 06:35:22;;;;;;;17.38;8.95;;;;;;;;;;5072943;28;20057;-74
2023/06/15 06:37:48;;;;;;;15.10;9.33;;;;;;;;;;5073445;28;20125;-74
2023/06/15 06:40:13;;;;;;;11.80;9.07;;;;;;;;;;5073200;28;20377;-73
2023/06/15 06:42:38;;;;;;;18.17;8.43;;;;;;;;;;5073094;28;20328;-74
2023/06/15 06:45:03;;;;;;;17.40;9.53;;;;;;;;;;5073295;28;20345;-73
2023/06/15 06:47:30;;;;;;;21.45;10.20;;;;;;;;;;5072896;28;20275;-74
2023/06/15 06:49:55;;;;;;;21.20;8.32;;;;;;;;;;5072817;28;20029;-73
2023/06/15 06:52:20;;;;;;;15.73;8.00;;;;;;;;;;5073197;28;20071;-74
2023/06/15 06:54:46;;;;;;;14.50;7.63;;;;;;;;;;5072919;28;20099;-73
2023/06/15 06:57:11;;;;;;;13.63;7.93;;;;;;;;;;5072810;28;20492;-73
2023/06/15 06:59:36;;;;;;;12.35;7.93;;;;;;;;;;5072909;28;20285;-73
2023/06/15 07:02:02;;;;;;;12.63;7.63;;;;;;;;;;5073027;28;20020;-74
2023/06/15 07:04:27;;;;;;;12.60;7.43;;;;;;;;;;5072702;28;20111;-73
2023/06/15 07:06:52;;;;;;;10.10;7.00;;;;;;;;;;5072806;28;20655;-74
2023/06/15 07:09:17;;;;;;;7.87;6.60;;;;;;;;;;5073531;28;20107;-73
2023/06/15 07:11:43;;;;;;;10.23;7.07;;;;;;;;;;5072615;28;20267;-73
2023/06/15 07:14:08;;;;;;;10.90;6.65;;;;;;;;;;5072967;28;20265;-73
2023/06/15 07:16:33;;;;;;;8.80;6.63;;;;;;;;;;5076660;28;20025;-72
2023/06/15 07:18:59;;;;;;;8.10;6.33;;;;;;;;;;5058755;28;20040;-73
2023/06/15 07:21:24;;;;;;;14.40;6.00;;;;;;;;;;5076613;28;20292;-72
2023/06/15 07:23:49;;;;;;;11.35;7.28;;;;;;;;;;5076616;28;20655;-74
2023/06/15 07:26:14;;;;;;;8.27;6.03;;;;;;;;;;5076716;28;20385;-74
2023/06/15 07:28:40;;;;;;;12.07;6.30;;;;;;;;;;5076721;28;20013;-74
2023/06/15 07:31:06;;;;;;;6.72;5.38;;;;;;;;;;5076195;28;20032;-74
2023/06/15 07:33:33;;;;;;;9.83;6.53;;;;;;;;;;5088537;28;20492;-75
2023/06/15 07:35:59;;;;;;;9.98;5.60;;;;;;;;;;5078344;28;20031;-72
2023/06/15 07:38:25;;;;;;;8.60;4.85;;;;;;;;;;5097094;28;20016;-74
2023/06/15 07:40:50;;;;;;;6.75;5.53;;;;;;;;;;5096520;28;20075;-78
2023/06/15 07:43:17;;;;;;;7.82;5.20;;;;;;;;;;5095697;28;20481;-74
2023/06/15 07:45:45;;;;;;;6.85;5.70;;;;;;;;;;5096538;28;20016;-74
2023/06/15 07:48:13;;;;;;;9.20;5.88;;;;;;;;;;5096550;28;20027;-75
2023/06/15 07:50:39;;;;;;;6.90;5.90;;;;;;;;;;5078445;28;20024;-72
2023/06/15 07:53:05;;;;;;;17.48;6.35;;;;;;;;;;5096963;28;20047;-73
2023/06/15 07:55:45;;;;;;;10.07;6.45;;;;;;;;;;5078396;28;20024;-73
2023/06/15 07:58:11;;;;;;;9.65;6.72;;;;;;;;;;5096588;28;20024;-73
2023/06/15 08:00:36;;;;;;;8.80;7.13;;;;;;;;;;5096291;28;20031;-74
2023/06/15 08:03:02;;;;;;;11.57;7.27;;;;;;;;;;5096166;28;20024;-75
2023/06/15 08:05:27;;;;;;;11.82;7.20;;;;;;;;;;5096308;28;20266;-73
2023/06/15 08:07:53;;;;;;;14.67;8.23;;;;;;;;;;5096595;28;20075;-72
2023/06/15 08:10:19;;;;;;;14.68;8.93;;;;;;;;;;5096490;28;20743;-73
2023/06/15 08:12:45;;;;;;;14.10;8.45;;;;;;;;;;5096033;28;20099;-74
2023/06/15 08:15:10;;;;;;;11.23;8.57;;;;;;;;;;5094077;28;20432;-73
2023/06/15 08:17:38;;;;;;;17.50;8.38;;;;;;;;;;5095890;28;20266;-73
2023/06/15 08:20:09;;;;;;;19.10;9.05;;;;;;;;;;5095854;28;20135;-72
2023/06/15 08:22:37;;;;;;;36.22;13.35;;;;;;;;;;5096361;28;20020;-74
2023/06/15 08:25:03;;;;;;;31.27;12.57;;;;;;;;;;5095833;28;20020;-72
2023/06/15 08:27:28;;;;;;;22.25;11.65;;;;;;;;;;5077737;28;20024;-72
2023/06/15 08:29:54;;;;;;;28.77;13.27;;;;;;;;;;5095768;28;20027;-73
2023/06/15 08:32:20;;;;;;;22.85;13.45;;;;;;;;;;5095597;28;20356;-72
2023/06/15 08:34:45;;;;;;;19.75;13.38;;;;;;;;;;5077417;28;20111;-72
2023/06/15 08:37:14;;;;;;;24.23;15.30;;;;;;;;;;5095814;28;20039;-72
2023/06/15 08:39:40;;;;;;;18.75;14.73;;;;;;;;;;5095550;28;20031;-75
2023/06/15 08:42:06;;;;;;;17.20;13.18;;;;;;;;;;5095596;28;20032;-76
2023/06/15 08:44:33;;;;;;;19.23;13.27;;;;;;;;;;5077039;28;20074;-76
2023/06/15 08:47:03;;;;;;;20.98;16.27;;;;;;;;;;5095250;28;20012;-75
2023/06/15 08:49:37;;;;;;;18.42;11.45;;;;;;;;;;5077118;28;20115;-74
2023/06/15 08:52:02;;;;;;;14.55;9.35;;;;;;;;;;5095400;28;20077;-75
2023/06/15 08:54:32;;;;;;;10.60;7.85;;;;;;;;;;5095271;28;20415;-76
2023/06/15 08:56:58;;;;;;;8.63;6.60;;;;;;;;;;5077459;28;20032;-75
2023/06/15 08:59:25;;;;;;;12.15;7.65;;;;;;;;;;5095159;28;20020;-76
2023/06/15 09:02:07;;;;;;;10.73;6.50;;;;;;;;;;5095380;28;20012;-74
2023/06/15 09:04:33;;;;;;;9.57;6.70;;;;;;;;;;5095271;28;20055;-76
2023/06/15 09:07:01;;;;;;;7.47;5.90;;;;;;;;;;5077016;28;20044;-75
2023/06/15 09:09:27;;;;;;;11.18;6.45;;;;;;;;;;5095019;28;20026;-76
2023/06/15 09:11:53;;;;;;;8.85;6.00;;;;;;;;;;5095272;28;20027;-78
2023/06/15 09:14:19;;;;;;;8.05;6.20;;;;;;;;;;5095433;28;20020;-77
2023/06/15 09:16:46;;;;;;;9.35;6.38;;;;;;;;;;5094928;28;20031;-77
2023/06/15 09:19:16;;;;;;;10.43;6.32;;;;;;;;;;5076511;28;20070;-77
2023/06/15 09:21:43;;;;;;;11.63;6.38;;;;;;;;;;5094119;28;20012;-77
2023/06/15 09:24:09;;;;;;;8.77;6.63;;;;;;;;;;5075919;28;20040;-76
2023/06/15 09:26:37;;;;;;;8.90;7.07;;;;;;;;;;5094203;28;20039;-78
2023/06/15 09:29:07;;;;;;;13.77;6.55;;;;;;;;;;5076122;28;20046;-77
2023/06/15 09:31:34;;;;;;;12.10;6.10;;;;;;;;;;5090710;28;20028;-78
2023/06/15 09:34:02;;;;;;;11.95;6.15;;;;;;;;;;5093556;28;20024;-79
2023/06/15 09:36:34;;;;;;;7.47;6.32;;;;;;;;;;5059011;28;20016;-79
2023/06/15 09:38:59;;;;;;;13.70;6.90;;;;;;;;;;5074737;28;20042;-77
2023/06/15 09:41:25;;;;;;;11.65;7.05;;;;;;;;;;5075498;28;20476;-78
2023/06/15 09:43:53;;;;;;;15.90;7.15;;;;;;;;;;5093617;28;20016;-77
2023/06/15 09:46:21;;;;;;;15.90;6.15;;;;;;;;;;5058799;28;20499;-78
2023/06/15 09:48:47;;;;;;;9.02;6.20;;;;;;;;;;5093426;28;20055;-79
2023/06/15 09:51:15;;;;;;;9.65;5.70;;;;;;;;;;5093199;28;20035;-73
2023/06/15 09:53:42;;;;;;;9.18;5.22;;;;;;;;;;5075526;28;20045;-75
2023/06/15 09:56:09;;;;;;;8.65;5.85;;;;;;;;;;5075343;28;20024;-73
2023/06/15 09:58:35;;;;;;;12.32;5.75;;;;;;;;;;5093320;28;20377;-76
2023/06/15 10:01:03;;;;;;;10.40;5.38;;;;;;;;;;5092967;28;20020;-74
2023/06/15 10:03:31;;;;;;;11.82;5.43;;;;;;;;;;5075072;28;20047;-74
2023/06/15 10:05:59;;;;;;;10.43;5.40;;;;;;;;;;5092893;28;20027;-75
2023/06/15 10:08:26;;;;;;;6.53;5.32;;;;;;;;;;5092843;28;20019;-75
2023/06/15 10:10:56;;;;;;;9.38;4.65;;;;;;;;;;5075169;28;20020;-76
2023/06/15 10:13:26;;;;;;;7.60;5.18;;;;;;;;;;5093418;28;20016;-75
2023/06/15 10:15:55;;;;;;;9.98;4.93;;;;;;;;;;5075273;28;20050;-73
2023/06/15 10:18:22;;;;;;;6.57;4.82;;;;;;;;;;5075124;28;20103;-74
2023/06/15 10:21:00;;;;;;;11.35;4.28;;;;;;;;;;4968631;28;3550062;-76
2023/06/15 10:23:27;;;;;;;5.07;4.32;;;;;;;;;;5094025;28;20110;-78
2023/06/15 10:25:55;;;;;;;7.90;4.28;;;;;;;;;;5076152;28;20085;-78
2023/06/15 10:28:28;;;;;;;7.80;4.20;;;;;;;;;;5094099;28;20018;-75
2023/06/15 10:30:56;;;;;;;5.72;4.40;;;;;;;;;;5075328;28;20373;-74
2023/06/15 10:33:25;;;;;;;7.38;4.10;;;;;;;;;;5093237;28;20104;-75
2023/06/15 10:35:52;;;;;;;5.65;3.67;;;;;;;;;;5093675;28;20024;-75
2023/06/15 10:38:33;;;;;;;7.57;4.40;;;;;;;;;;5093386;28;20377;-75
2023/06/15 10:40:59;;;;;;;;;;;;;;;;;;5093816;28;20032;-74
2023/06/15 10:43:28;;;;;;;6.60;4.13;;;;;;;;;;5074452;28;19962;-74
2023/06/15 10:45:55;;;;;;;6.60;4.13;;;;;;;;;;5093332;28;20043;-72
2023/06/15 10:48:26;;;;;;;5.72;3.88;;;;;;;;;;5089684;28;20055;-73
2023/06/15 10:51:11;;;;;;;4.88;3.83;;;;;;;;;;5092617;28;20031;-73
2023/06/15 10:53:39;;;;;;;8.43;4.05;;;;;;;;;;5093252;28;20016;-75
2023/06/15 10:56:09;;;;;;;5.20;2.90;;;;;;;;;;5093199;28;20020;-75
2023/06/15 10:58:50;;;;;;;6.20;4.13;;;;;;;;;;5093528;28;20020;-76
2023/06/15 11:01:20;;;;;;;4.82;3.40;;;;;;;;;;5075298;28;20093;-76
2023/06/15 11:03:46;;;;;;;4.28;3.20;;;;;;;;;;5093434;28;20046;-76
2023/06/15 11:06:18;;;;;;;6.63;3.20;;;;;;;;;;5093178;28;20023;-75
2023/06/15 11:08:51;;;;;;;5.60;3.13;;;;;;;;;;5093073;28;20090;-75
2023/06/15 11:11:22;;;;;;;4.90;3.50;;;;;;;;;;5093596;28;20024;-76
2023/06/15 11:14:05;;;;;;;5.43;3.50;;;;;;;;;;5093224;28;20457;-76
2023/06/15 11:16:33;;;;;;;6.53;3.47;;;;;;;;;;5093271;28;20016;-75
2023/06/15 11:19:21;;;;;;;5.63;3.20;;;;;;;;;;5075323;28;20040;-76
2023/06/15 11:22:01;;;;;;;6.70;3.30;;;;;;;;;;5093190;28;20039;-76
2023/06/15 11:24:33;;;;;;;5.13;3.38;;;;;;;;;;5093161;28;20484;-76
2023/06/15 11:27:03;;;;;;;7.53;3.85;;;;;;;;;;5058446;28;20028;-76
2023/06/15 11:29:33;;;;;;;7.57;3.53;;;;;;;;;;5092521;28;20170;-74
2023/06/15 11:32:00;;;;;;;10.27;3.07;;;;;;;;;;5093195;28;20480;-76
2023/06/15 11:34:27;;;;;;;7.20;3.03;;;;;;;;;;5074941;28;20496;-77
2023/06/15 11:37:12;;;;;;;4.47;3.20;;;;;;;;;;5074727;28;20469;-76
2023/06/15 11:39:42;;;;;;;6.35;3.65;;;;;;;;;;5092161;28;20039;-75
2023/06/15 11:42:08;;;;;;;6.10;3.60;;;;;;;;;;5092958;28;20024;-73
2023/06/15 11:44:41;;;;;;;6.82;3.67;;;;;;;;;;5074690;28;20088;-74
2023/06/15 11:47:10;;;;;;;5.68;3.63;;;;;;;;;;5093085;28;20031;-74
2023/06/15 11:49:36;;;;;;;7.50;3.42;;;;;;;;;;5075008;28;20093;-72
2023/06/15 11:52:19;;;;;;;4.20;3.40;;;;;;;;;;5074716;28;20036;-74
2023/06/15 11:54:45;;;;;;;7.82;3.33;;;;;;;;;;5092697;28;20020;-74
2023/06/15 11:57:11;;;;;;;6.15;3.30;;;;;;;;;;5089862;28;20038;-72
2023/06/15 11:59:41;;;;;;;7.15;4.30;;;;;;;;;;5092955;28;20035;-74
2023/06/15 12:02:07;;;;;;;5.88;3.60;;;;;;;;;;5078161;28;20052;-74
2023/06/15 12:04:33;;;;;;;5.88;3.97;;;;;;;;;;5096587;28;20023;-74
2023/06/15 12:07:04;;;;;;;4.10;3.35;;;;;;;;;;5093397;28;20024;-74
2023/06/15 12:09:30;;;;;;;5.60;3.50;;;;;;;;;;5078959;28;20032;-73
2023/06/15 12:12:27;;;;;;;8.35;3.42;;;;;;;;;;5095284;28;20039;-74
2023/06/15 12:14:53;;;;;;;9.98;3.88;;;;;;;;;;5095194;28;20027;-75
2023/06/15 12:17:25;;;;;;;7.72;3.60;;;;;;;;;;5095650;28;20101;-77
2023/06/15 12:19:57;;;;;;;4.97;3.88;;;;;;;;;;5094619;28;20050;-75
2023/06/15 12:22:27;;;;;;;7.70;4.03;;;;;;;;;;5095196;28;20023;-77
2023/06/15 12:24:59;;;;;;;6.35;3.83;;;;;;;;;;5095059;28;20073;-74
2023/06/15 12:27:26;;;;;;;7.75;4.18;;;;;;;;;;5095865;28;20030;-74
2023/06/15 12:29:53;;;;;;;5.88;3.67;;;;;;;;;;5096300;28;20028;-75
2023/06/15 12:32:23;;;;;;;7.38;3.92;;;;;;;;;;5078119;28;20028;-74
2023/06/15 12:34:51;;;;;;;9.40;4.00;;;;;;;;;;5078084;28;20032;-75
2023/06/15 12:37:17;;;;;;;9.30;4.03;;;;;;;;;;5077974;28;20040;-75
2023/06/15 12:39:44;;;;;;;8.05;4.05;;;;;;;;;;5095835;28;20031;-75
2023/06/15 12:42:10;;;;;;;8.32;3.72;;;;;;;;;;5077757;28;20039;-74
2023/06/15 12:44:35;;;;;;;4.37;3.87;;;;;;;;;;5077127;28;20032;-75
2023/06/15 12:47:00;;;;;;;7.00;3.88;;;;;;;;;;5095548;28;20664;-75
2023/06/15 12:49:26;;;;;;;7.53;3.83;;;;;;;;;;5093562;28;20428;-76
2023/06/15 12:51:52;;;;;;;9.67;4.03;;;;;;;;;;5093730;28;20282;-77
2023/06/15 12:54:18;;;;;;;7.30;4.18;;;;;;;;;;5093324;28;20266;-75
2023/06/15 12:56:43;;;;;;;4.43;3.30;;;;;;;;;;5093114;28;20028;-74
2023/06/15 12:59:08;;;;;;;7.50;4.50;;;;;;;;;;5074978;28;20024;-75
2023/06/15 13:01:34;;;;;;;6.33;3.93;;;;;;;;;;5093467;28;20020;-76
2023/06/15 13:04:00;;;;;;;5.43;3.70;;;;;;;;;;5093080;28;20619;-75
2023/06/15 13:06:26;;;;;;;9.18;3.30;;;;;;;;;;5093263;28;20418;-75
2023/06/15 13:08:52;;;;;;;5.30;3.45;;;;;;;;;;5093123;28;20523;-74
2023/06/15 13:11:17;;;;;;;4.15;3.28;;;;;;;;;;5093138;28;20028;-76
2023/06/15 13:13:42;;;;;;;8.50;3.75;;;;;;;;;;5092170;28;20110;-76
2023/06/15 13:16:07;;;;;;;6.00;4.00;;;;;;;;;;5092913;28;20052;-76
2023/06/15 13:18:33;;;;;;;6.53;3.50;;;;;;;;;;5095023;28;20035;-74
2023/06/15 13:20:58;;;;;;;6.80;3.50;;;;;;;;;;5094683;28;20647;-76
2023/06/15 13:23:24;;;;;;;7.78;3.42;;;;;;;;;;5094799;28;20270;-75
2023/06/15 13:25:50;;;;;;;8.13;3.88;;;;;;;;;;5094767;28;20027;-74
2023/06/15 13:28:15;;;;;;;6.70;3.22;;;;;;;;;;5076687;28;20024;-74
2023/06/15 13:30:40;;;;;;;6.53;3.55;;;;;;;;;;5094907;28;20024;-75
2023/06/15 13:33:06;;;;;;;7.95;3.78;;;;;;;;;;5076574;28;20085;-74
2023/06/15 13:35:31;;;;;;;7.40;4.15;;;;;;;;;;5094816;28;20026;-75
2023/06/15 13:37:58;;;;;;;5.20;3.58;;;;;;;;;;5076387;28;20034;-75
2023/06/15 13:40:24;;;;;;;6.00;3.53;;;;;;;;;;5094450;28;20031;-73
2023/06/15 13:42:49;;;;;;;7.63;4.00;;;;;;;;;;5076303;28;20017;-74
2023/06/15 13:45:16;;;;;;;4.68;3.95;;;;;;;;;;5094557;28;20061;-75
2023/06/15 13:47:42;;;;;;;10.55;4.97;;;;;;;;;;5094376;28;20012;-75
2023/06/15 13:50:09;;;;;;;8.45;4.43;;;;;;;;;;5094197;28;20016;-75
2023/06/15 13:52:35;;;;;;;11.05;4.38;;;;;;;;;;5094318;28;20020;-74
2023/06/15 13:55:01;;;;;;;5.30;3.63;;;;;;;;;;5076616;28;20468;-73
2023/06/15 13:57:27;;;;;;;8.45;4.40;;;;;;;;;;5075973;28;20537;-75
2023/06/15 13:59:52;;;;;;;13.10;4.87;;;;;;;;;;5094352;28;20099;-74
2023/06/15 14:02:18;;;;;;;5.25;4.13;;;;;;;;;;5094404;28;20266;-75
2023/06/15 14:04:43;;;;;;;7.03;3.78;;;;;;;;;;5094102;28;20027;-75
2023/06/15 14:07:08;;;;;;;6.05;4.10;;;;;;;;;;5075843;28;20020;-74
2023/06/15 14:09:33;;;;;;;10.47;4.53;;;;;;;;;;5094271;28;20024;-74
2023/06/15 14:11:59;;;;;;;8.65;4.30;;;;;;;;;;5094026;28;20530;-75
2023/06/15 14:14:25;;;;;;;6.57;3.53;;;;;;;;;;5093971;28;20027;-75
2023/06/15 14:16:52;;;;;;;7.97;4.68;;;;;;;;;;5094310;28;20031;-74
2023/06/15 14:19:17;;;;;;;7.03;4.55;;;;;;;;;;5093555;28;20202;-75
2023/06/15 14:21:42;;;;;;;6.13;3.90;;;;;;;;;;5094022;28;20107;-75
2023/06/15 14:24:08;;;;;;;7.53;4.27;;;;;;;;;;5093331;28;20730;-75
2023/06/15 14:26:33;;;;;;;8.83;4.40;;;;;;;;;;5094109;28;20322;-74
2023/06/15 14:28:58;;;;;;;5.47;3.53;;;;;;;;;;5075574;28;20285;-74